createdAt,value
2018-06-19T00:01:48.049Z,101563.62
2018-06-19T00:04:52.474Z,101567.45
2018-06-19T00:07:56.898Z,101563.62
2018-06-19T00:11:01.346Z,101565.23
2018-06-19T00:14:05.814Z,101564.11
2018-06-19T00:17:10.237Z,101571.16
2018-06-19T00:20:14.661Z,101559.30
2018-06-19T00:23:19.089Z,101560.95
2018-06-19T00:26:23.496Z,101561.76
2018-06-19T00:29:27.917Z,101560.48
2018-06-19T00:32:32.325Z,101557.20
2018-06-19T00:35:36.733Z,101552.37
2018-06-19T00:38:41.136Z,101556.77
2018-06-19T00:41:45.539Z,101548.91
2018-06-19T00:44:49.906Z,101546.77
2018-06-19T00:47:54.471Z,101541.69
2018-06-19T00:50:59.036Z,101542.53
2018-06-19T00:54:04.286Z,101532.45
2018-06-19T00:57:08.774Z,101540.95
2018-06-19T01:00:13.185Z,101543.53
2018-06-19T01:03:17.586Z,101537.73
2018-06-19T01:06:22.009Z,101537.84
2018-06-19T01:09:26.381Z,101537.88
2018-06-19T01:12:30.780Z,101540.58
2018-06-19T01:15:35.156Z,101535.94
2018-06-19T01:18:39.572Z,101538.44
2018-06-19T01:21:43.972Z,101536.23
2018-06-19T01:24:48.365Z,101532.75
2018-06-19T01:27:52.765Z,101532.51
2018-06-19T01:30:57.181Z,101525.36
2018-06-19T01:34:01.565Z,101523.68
2018-06-19T01:37:06.012Z,101529.03
2018-06-19T01:40:10.396Z,101515.70
2018-06-19T01:43:14.793Z,101514.89
2018-06-19T01:46:19.197Z,101516.52
2018-06-19T01:49:23.591Z,101515.45
2018-06-19T01:52:27.977Z,101509.52
2018-06-19T01:55:32.377Z,101506.48
2018-06-19T01:58:36.792Z,101504.70
2018-06-19T02:01:41.205Z,101503.89
2018-06-19T02:04:45.603Z,101493.16
2018-06-19T02:07:49.984Z,101499.24
2018-06-19T02:10:54.388Z,101496.84
2018-06-19T02:13:58.784Z,101491.39
2018-06-19T02:17:03.177Z,101491.43
2018-06-19T02:20:08.206Z,101492.59
2018-06-19T02:23:12.584Z,101491.50
2018-06-19T02:26:16.949Z,101499.48
2018-06-19T02:29:21.368Z,101498.70
2018-06-19T02:32:25.777Z,101495.47
2018-06-19T02:35:30.178Z,101497.16
2018-06-19T02:38:34.577Z,101493.60
2018-06-19T02:41:39.121Z,101489.52
2018-06-19T02:44:43.560Z,101484.37
2018-06-19T02:47:47.964Z,101479.72
2018-06-19T02:50:52.356Z,101476.66
2018-06-19T02:53:56.748Z,101483.53
2018-06-19T02:57:01.259Z,101491.73
2018-06-19T03:00:06.349Z,101498.63
2018-06-19T03:03:10.725Z,101491.98
2018-06-19T03:06:15.118Z,101496.91
2018-06-19T03:09:19.520Z,101499.66
2018-06-19T03:12:23.900Z,101508.48
2018-06-19T03:15:28.280Z,101505.48
2018-06-19T03:18:32.658Z,101498.94
2018-06-19T03:21:37.102Z,101501.69
2018-06-19T03:24:41.526Z,101506.33
2018-06-19T03:27:45.907Z,101507.11
2018-06-19T03:30:50.294Z,101515.73
2018-06-19T03:33:54.786Z,101516.56
2018-06-19T03:36:59.174Z,101516.85
2018-06-19T03:40:03.604Z,101521.59
2018-06-19T03:43:07.990Z,101511.45
2018-06-19T03:46:12.445Z,101515.86
2018-06-19T03:49:16.820Z,101519.41
2018-06-19T03:52:21.205Z,101522.97
2018-06-19T03:55:25.576Z,101520.81
2018-06-19T03:58:29.981Z,101516.70
2018-06-19T04:01:34.410Z,101513.42
2018-06-19T04:04:38.812Z,101505.19
2018-06-19T04:07:43.254Z,101511.55
2018-06-19T04:10:47.629Z,101513.80
2018-06-19T04:13:51.998Z,101501.97
2018-06-19T04:16:56.373Z,101510.80
2018-06-19T04:20:00.766Z,101506.41
2018-06-19T04:23:05.145Z,101499.58
2018-06-19T04:26:09.533Z,101508.44
2018-06-19T04:29:13.905Z,101505.44
2018-06-19T04:32:18.256Z,101512.40
2018-06-19T04:35:22.697Z,101511.87
2018-06-19T04:38:27.086Z,101521.14
2018-06-19T04:41:31.458Z,101525.79
2018-06-19T04:44:35.841Z,101531.87
2018-06-19T04:47:40.216Z,101535.15
2018-06-19T04:50:44.596Z,101539.87
2018-06-19T04:53:48.992Z,101539.83
2018-06-19T04:56:53.372Z,101550.32
2018-06-19T04:59:57.509Z,101541.27
2018-06-19T05:03:01.886Z,101553.13
2018-06-19T05:06:06.310Z,101545.14
2018-06-19T05:09:13.033Z,101541.33
2018-06-19T05:12:17.420Z,101545.98
2018-06-19T05:15:21.822Z,101542.98
2018-06-19T05:18:26.215Z,101552.16
2018-06-19T05:21:30.612Z,101554.59
2018-06-19T05:24:35.009Z,101558.69
2018-06-19T05:27:39.411Z,101558.38
2018-06-19T05:30:43.805Z,101555.97
2018-06-19T05:33:48.212Z,101561.78
2018-06-19T05:36:52.597Z,101557.66
2018-06-19T05:39:57.022Z,101559.91
2018-06-19T05:43:01.404Z,101572.55
2018-06-19T05:46:05.779Z,101566.77
2018-06-19T05:49:10.172Z,101569.52
2018-06-19T05:52:14.623Z,101568.52
2018-06-19T05:55:18.989Z,101576.02
2018-06-19T05:58:23.374Z,101583.23
2018-06-19T06:01:27.819Z,101582.79
2018-06-19T06:04:32.189Z,101591.88
2018-06-19T06:07:36.597Z,101588.81
2018-06-19T06:10:40.966Z,101582.72
2018-06-19T06:13:45.354Z,101590.41
2018-06-19T06:16:49.733Z,101589.75
2018-06-19T06:19:54.108Z,101596.72
2018-06-19T06:22:58.473Z,101596.02
2018-06-19T06:26:02.862Z,101595.85
2018-06-19T06:29:07.265Z,101598.21
2018-06-19T06:32:11.669Z,101593.75
2018-06-19T06:35:16.045Z,101590.84
2018-06-19T06:38:20.454Z,101598.75
2018-06-19T06:41:24.878Z,101602.44
2018-06-19T06:44:29.307Z,101600.22
2018-06-19T06:47:33.700Z,101609.52
2018-06-19T06:50:38.130Z,101616.36
2018-06-19T06:53:42.496Z,101627.64
2018-06-19T06:56:46.902Z,101632.86
2018-06-19T06:59:51.292Z,101632.61
2018-06-19T07:02:55.668Z,101640.61
2018-06-19T07:06:00.069Z,101640.86
2018-06-19T07:09:06.862Z,101654.11
2018-06-19T07:12:11.292Z,101648.30
2018-06-19T07:15:15.677Z,101651.61
2018-06-19T07:18:20.081Z,101644.50
2018-06-19T07:21:24.457Z,101635.97
2018-06-19T07:24:28.853Z,101647.03
2018-06-19T07:27:33.227Z,101648.99
2018-06-19T07:30:37.672Z,101661.45
2018-06-19T07:33:42.050Z,101653.78
2018-06-19T07:36:46.499Z,101671.36
2018-06-19T07:39:50.858Z,101676.51
2018-06-19T07:42:59.310Z,101686.63
2018-06-19T07:46:03.691Z,101684.37
2018-06-19T07:49:08.090Z,101694.20
2018-06-19T07:52:12.483Z,101706.84
2018-06-19T07:55:16.869Z,101718.34
2018-06-19T07:58:21.285Z,101710.41
2018-06-19T08:01:25.788Z,101719.53
2018-06-19T08:04:30.149Z,101731.45
2018-06-19T08:07:34.526Z,101735.56
2018-06-19T08:10:38.917Z,101746.98
2018-06-19T08:13:43.345Z,101751.98
2018-06-19T08:16:47.732Z,101748.55
2018-06-19T08:19:52.133Z,101750.14
2018-06-19T08:22:56.528Z,101753.98
2018-06-19T08:26:00.930Z,101751.17
2018-06-19T08:29:05.292Z,101747.39
2018-06-19T08:32:09.669Z,101754.36
2018-06-19T08:35:14.089Z,101745.98
2018-06-19T08:38:18.449Z,101739.45
2018-06-19T08:41:22.615Z,101746.36
2018-06-19T08:44:27.024Z,101754.77
2018-06-19T08:47:31.468Z,101753.81
2018-06-19T08:50:35.857Z,101757.80
2018-06-19T08:53:40.258Z,101776.65
2018-06-19T08:56:44.642Z,101769.88
2018-06-19T08:59:49.034Z,101769.71
2018-06-19T09:02:53.417Z,101768.14
2018-06-19T09:05:57.800Z,101771.34
2018-06-19T09:09:02.173Z,101773.24
2018-06-19T09:12:06.686Z,101773.70
2018-06-19T09:15:11.070Z,101777.77
2018-06-19T09:18:15.474Z,101772.70
2018-06-19T09:21:19.848Z,101777.50
2018-06-19T09:24:24.209Z,101777.13
2018-06-19T09:27:28.590Z,101784.88
2018-06-19T09:30:32.953Z,101792.00
2018-06-19T09:33:37.393Z,101794.49
2018-06-19T09:36:41.776Z,101796.31
2018-06-19T09:39:46.206Z,101786.48
2018-06-19T09:42:50.524Z,101779.66
2018-06-19T09:45:54.945Z,101781.91
2018-06-19T09:48:59.353Z,101775.27
2018-06-19T09:52:03.797Z,101769.85
2018-06-19T09:55:08.210Z,101770.19
2018-06-19T09:58:12.601Z,101775.84
2018-06-19T10:01:16.974Z,101779.45
2018-06-19T10:04:21.401Z,101781.90
2018-06-19T10:07:25.773Z,101787.07
2018-06-19T10:10:30.132Z,101789.11
2018-06-19T10:13:34.554Z,101801.70
2018-06-19T10:16:38.968Z,101797.48
2018-06-19T10:19:43.409Z,101802.56
2018-06-19T10:22:47.808Z,101805.81
2018-06-19T10:25:52.161Z,101814.07
2018-06-19T10:28:56.525Z,101826.23
2018-06-19T10:32:00.937Z,101830.58
2018-06-19T10:35:05.376Z,101826.16
2018-06-19T10:38:09.779Z,101821.91
2018-06-19T10:41:14.197Z,101830.63
2018-06-19T10:44:18.577Z,101836.58
2018-06-19T10:47:22.990Z,101847.95
2018-06-19T10:50:27.402Z,101847.09
2018-06-19T10:53:31.816Z,101854.85
2018-06-19T10:56:36.213Z,101862.55
2018-06-19T10:59:40.630Z,101867.78
2018-06-19T11:02:45.025Z,101857.53
2018-06-19T11:05:49.489Z,101863.59
2018-06-19T11:08:53.908Z,101873.58
2018-06-19T11:11:58.349Z,101866.44
2018-06-19T11:15:02.792Z,101873.06
2018-06-19T11:18:07.199Z,101867.56
2018-06-19T11:21:11.368Z,101869.91
2018-06-19T11:24:15.819Z,101868.36
2018-06-19T11:27:20.262Z,101869.53
2018-06-19T11:30:24.682Z,101862.92
2018-06-19T11:33:29.288Z,101880.77
2018-06-19T11:36:33.837Z,101882.07
2018-06-19T11:39:38.836Z,101882.50
2018-06-19T11:42:43.301Z,101906.40
2018-06-19T11:45:47.798Z,101903.63
2018-06-19T11:48:52.216Z,101900.86
2018-06-19T11:51:56.644Z,101907.70
2018-06-19T11:55:01.118Z,101896.80
2018-06-19T11:58:05.714Z,101906.96
2018-06-19T12:01:10.197Z,101898.94
2018-06-19T12:04:14.593Z,101899.54
2018-06-19T12:07:19.035Z,101903.23
2018-06-19T12:10:23.497Z,101922.88
2018-06-19T12:13:27.956Z,101910.00
2018-06-19T12:16:32.425Z,101920.67
2018-06-19T12:19:36.868Z,101915.61
2018-06-19T12:22:41.344Z,101919.56
2018-06-19T12:25:45.813Z,101913.03
2018-06-19T12:28:50.337Z,101917.91
2018-06-19T12:31:54.761Z,101913.87
2018-06-19T12:34:59.210Z,101928.30
2018-06-19T12:38:03.673Z,101927.36
2018-06-19T12:41:08.134Z,101932.55
2018-06-19T12:44:12.379Z,101933.67
2018-06-19T12:47:16.817Z,101936.13
2018-06-19T12:50:43.197Z,101933.45
2018-06-19T12:55:06.729Z,101924.94
2018-06-19T12:58:11.160Z,101932.63
2018-06-19T13:01:15.628Z,101938.15
2018-06-19T13:04:37.116Z,101945.09
2018-06-19T13:07:43.580Z,101945.34
2018-06-19T13:10:48.040Z,101951.14
2018-06-19T13:14:09.401Z,101971.24
2018-06-19T13:17:30.762Z,101964.58
2018-06-19T13:20:49.460Z,101969.52
2018-06-19T13:23:53.909Z,101980.70
2018-06-19T13:26:58.306Z,101976.51
2018-06-19T13:30:19.542Z,101964.96
2018-06-19T13:33:23.967Z,101972.25
2018-06-19T13:36:28.369Z,101970.95
2018-06-19T13:39:33.184Z,101976.41
2018-06-19T13:44:59.674Z,101979.73
2018-06-19T13:48:04.119Z,101976.59
2018-06-19T13:51:08.721Z,101981.77
2018-06-19T13:54:13.140Z,101996.24
2018-06-19T13:57:36.244Z,101993.58
2018-06-19T14:00:40.697Z,101997.39
2018-06-19T14:03:45.883Z,101999.00
2018-06-19T14:06:50.388Z,102003.48
2018-06-19T14:10:19.925Z,101990.56
2018-06-19T14:13:24.345Z,102001.67
2018-06-19T14:16:28.758Z,102002.21
2018-06-19T14:19:33.141Z,102007.47
2018-06-19T14:22:37.538Z,102014.38
2018-06-19T14:25:42.001Z,102018.93
2018-06-19T14:28:46.407Z,102008.42
2018-06-19T14:31:50.844Z,102024.28
2018-06-19T14:34:55.241Z,102017.27
2018-06-19T14:37:59.631Z,102016.55
2018-06-19T14:41:04.025Z,102031.52
2018-06-19T14:44:08.400Z,102023.14
2018-06-19T14:47:12.790Z,102024.61
2018-06-19T14:50:17.204Z,102034.23
2018-06-19T14:53:21.565Z,102029.34
2018-06-19T14:56:25.938Z,102017.36
2018-06-19T14:59:30.316Z,102024.47
2018-06-19T15:02:34.786Z,102019.94
2018-06-19T15:05:39.174Z,102028.44
2018-06-19T15:08:43.566Z,102021.42
2018-06-19T15:11:47.957Z,102026.78
2018-06-19T15:14:52.357Z,102032.31
2018-06-19T15:17:56.720Z,102019.98
2018-06-19T15:21:01.058Z,102036.45
2018-06-19T15:24:07.571Z,102043.39
2018-06-19T15:27:12.507Z,102035.67
2018-06-19T15:30:16.940Z,102033.81
2018-06-19T15:33:21.340Z,102046.09
2018-06-19T15:36:25.759Z,102042.25
2018-06-19T15:39:30.154Z,102042.20
2018-06-19T15:42:34.658Z,102051.84
2018-06-19T15:45:39.132Z,102046.26
2018-06-19T15:48:43.549Z,102049.55
2018-06-19T15:51:47.967Z,102061.52
2018-06-19T15:54:52.362Z,102052.30
2018-06-19T15:57:56.766Z,102034.48
2018-06-19T16:01:01.169Z,102028.00
2018-06-19T16:04:05.606Z,102029.44
2018-06-19T16:07:10.025Z,102028.00
2018-06-19T16:10:14.430Z,102035.30
2018-06-19T16:13:18.849Z,102031.27
2018-06-19T16:16:23.255Z,102030.81
2018-06-19T16:19:27.427Z,102042.02
2018-06-19T16:22:31.804Z,102040.34
2018-06-19T16:25:36.270Z,102034.97
2018-06-19T16:28:40.667Z,102030.55
2018-06-19T16:31:45.113Z,102033.91
2018-06-19T16:34:49.479Z,102041.17
2018-06-19T16:37:53.954Z,102041.22
2018-06-19T16:40:58.328Z,102032.09
2018-06-19T16:44:02.706Z,102049.65
2018-06-19T16:47:07.085Z,102051.42
2018-06-19T16:50:11.495Z,102046.11
2018-06-19T16:53:15.880Z,102049.95
2018-06-19T16:56:20.257Z,102042.00
2018-06-19T16:59:24.637Z,102052.48
2018-06-19T17:02:29.009Z,102046.30
2018-06-19T17:05:33.514Z,102059.38
2018-06-19T17:08:37.884Z,102053.80
2018-06-19T17:11:42.286Z,102052.47
2018-06-19T17:14:46.691Z,102053.44
2018-06-19T17:17:51.060Z,102061.36
2018-06-19T17:20:55.470Z,102061.28
2018-06-19T17:24:00.033Z,102063.75
2018-06-19T17:27:04.416Z,102077.66
2018-06-19T17:30:08.802Z,102077.08
2018-06-19T17:33:13.172Z,102079.09
2018-06-19T17:36:17.561Z,102078.92
2018-06-19T17:39:21.941Z,102070.39
2018-06-19T17:42:26.393Z,102084.05
2018-06-19T17:45:30.761Z,102082.87
2018-06-19T17:48:35.154Z,102082.45
2018-06-19T17:51:39.508Z,102082.15
2018-06-19T17:54:43.900Z,102081.36
2018-06-19T17:57:48.277Z,102080.17
2018-06-19T18:00:52.649Z,102071.41
2018-06-19T18:03:57.012Z,102069.75
2018-06-19T18:07:01.398Z,102058.00
2018-06-19T18:10:05.766Z,102072.97
2018-06-19T18:13:10.136Z,102066.01
2018-06-19T18:16:14.494Z,102057.81
2018-06-19T18:19:18.890Z,102061.41
2018-06-19T18:22:23.268Z,102060.73
2018-06-19T18:25:27.649Z,102061.96
2018-06-19T18:28:32.028Z,102061.06
2018-06-19T18:31:36.400Z,102067.11
2018-06-19T18:34:40.774Z,102059.34
2018-06-19T18:37:45.128Z,102058.52
2018-06-19T18:40:49.505Z,102057.52
2018-06-19T18:43:53.892Z,102066.64
2018-06-19T18:46:58.346Z,102070.45
2018-06-19T18:50:02.696Z,102061.48
2018-06-19T18:53:07.084Z,102071.55
2018-06-19T18:56:11.477Z,102067.73
2018-06-19T18:59:15.869Z,102069.09
2018-06-19T19:02:20.256Z,102076.86
2018-06-19T19:05:24.622Z,102075.81
2018-06-19T19:08:29.010Z,102072.52
2018-06-19T19:11:33.361Z,102065.66
2018-06-19T19:14:43.007Z,102068.52
2018-06-19T19:17:52.610Z,102073.38
2018-06-19T19:20:57.888Z,102062.71
2018-06-19T19:24:02.161Z,102070.31
2018-06-19T19:27:11.708Z,102077.41
2018-06-19T19:30:16.123Z,102080.94
2018-06-19T19:33:20.501Z,102080.90
2018-06-19T19:36:30.081Z,102081.00
2018-06-19T19:39:34.482Z,102086.67
2018-06-19T19:42:38.885Z,102089.12
2018-06-19T19:45:43.257Z,102089.62
2018-06-19T19:48:52.634Z,102100.13
2018-06-19T19:51:57.035Z,102109.25
2018-06-19T19:55:01.413Z,102112.96
2018-06-19T19:58:10.905Z,102115.38
2018-06-19T20:01:15.282Z,102127.62
2018-06-19T20:04:19.677Z,102132.95
2018-06-19T20:07:24.109Z,102135.63
2018-06-19T20:10:28.505Z,102137.28
2018-06-19T20:13:32.867Z,102133.20
2018-06-19T20:16:37.225Z,102137.76
2018-06-19T20:19:41.601Z,102136.42
2018-06-19T20:22:45.985Z,102139.27
2018-06-19T20:25:50.361Z,102143.44
2018-06-19T20:28:54.798Z,102141.77
2018-06-19T20:31:59.200Z,102142.75
2018-06-19T20:35:03.612Z,102146.59
2018-06-19T20:38:07.967Z,102138.41
2018-06-19T20:41:13.418Z,102143.16
2018-06-19T20:44:17.804Z,102138.13
2018-06-19T20:47:22.202Z,102135.70
2018-06-19T20:50:26.575Z,102126.05
2018-06-19T20:53:30.937Z,102124.07
2018-06-19T20:56:35.337Z,102124.80
2018-06-19T20:59:40.027Z,102119.69
2018-06-19T21:02:44.414Z,102123.37
2018-06-19T21:05:48.796Z,102120.73
2018-06-19T21:08:53.165Z,102120.02
2018-06-19T21:11:57.560Z,102116.64
2018-06-19T21:15:01.925Z,102107.20
2018-06-19T21:18:06.321Z,102110.77
2018-06-19T21:21:10.714Z,102108.37
2018-06-19T21:24:15.117Z,102105.57
2018-06-19T21:27:20.390Z,102115.78
2018-06-19T21:30:24.815Z,102115.27
2018-06-19T21:33:29.186Z,102109.80
2018-06-19T21:36:33.565Z,102097.20
2018-06-19T21:39:38.012Z,102101.09
2018-06-19T21:42:42.438Z,102106.46
2018-06-19T21:45:46.828Z,102115.38
2018-06-19T21:48:51.230Z,102115.59
2018-06-19T21:51:55.585Z,102113.27
2018-06-19T21:55:00.009Z,102123.78
2018-06-19T21:58:04.485Z,102123.63
2018-06-19T22:01:08.636Z,102123.23
2018-06-19T22:04:13.007Z,102115.41
2018-06-19T22:07:17.417Z,102110.67
2018-06-19T22:10:21.789Z,102109.95
2018-06-19T22:13:26.188Z,102114.56
2018-06-19T22:16:30.568Z,102111.66
2018-06-19T22:19:34.959Z,102105.99
2018-06-19T22:22:39.356Z,102108.72
2018-06-19T22:25:43.722Z,102108.72
2018-06-19T22:28:48.112Z,102097.67
2018-06-19T22:31:52.452Z,102104.58
2018-06-19T22:34:56.842Z,102100.70
2018-06-19T22:38:01.185Z,102102.91
2018-06-19T22:41:05.581Z,102102.06
2018-06-19T22:44:09.985Z,102097.77
2018-06-19T22:47:14.424Z,102096.18
2018-06-19T22:50:18.800Z,102088.72
2018-06-19T22:53:23.146Z,102095.53
2018-06-19T22:56:27.557Z,102097.03
2018-06-19T22:59:31.941Z,102100.70
2018-06-19T23:02:36.321Z,102101.02
2018-06-19T23:05:40.749Z,102101.22
2018-06-19T23:08:45.117Z,102092.83
2018-06-19T23:11:49.501Z,102099.74
2018-06-19T23:14:53.867Z,102092.84
2018-06-19T23:17:58.322Z,102086.97
2018-06-19T23:21:02.693Z,102084.37
2018-06-19T23:24:07.093Z,102084.16
2018-06-19T23:27:11.465Z,102080.71
2018-06-19T23:30:16.468Z,102090.47
2018-06-19T23:33:20.864Z,102075.16
2018-06-19T23:36:25.237Z,102070.31
2018-06-19T23:39:29.595Z,102067.16
2018-06-19T23:42:34.491Z,102068.44
2018-06-19T23:45:38.887Z,102071.27
2018-06-19T23:48:43.234Z,102071.48
2018-06-19T23:51:47.634Z,102073.06
2018-06-19T23:54:52.018Z,102074.64
2018-06-19T23:57:56.385Z,102077.16
